Time;durP1;ratioP1;P1;durP2;ratioP2;P2;SDS_P1;SDS_P2;PMS_P1;PMS_P2;Temp;Humidity;BMP_temperature;BMP_pressure;BME280_temperature;BME280_humidity;BME280_pressure;Samples;Min_cycle;Max_cycle;Signal;HPM_P1;HPM_P2
2023/10/22 00:00:50;;;;;;;;;;;19.00;79.30;;;;;;5040412;27;74796;-39
2023/10/22 00:03:16;;;;;;;;;;;19.00;79.10;;;;;;5053883;27;75660;-39
2023/10/22 00:05:41;;;;;;;;;;;19.10;79.20;;;;;;5049592;27;77250;-39
2023/10/22 00:08:07;;;;;;;;;;;19.10;79.20;;;;;;5055671;27;74622;-39
2023/10/22 00:10:32;;;;;;;;;;;19.10;79.10;;;;;;5053562;27;73710;-39
2023/10/22 00:12:58;;;;;;;;;;;19.00;79.10;;;;;;5055077;27;73037;-39
2023/10/22 00:15:27;;;;;;;;;;;19.00;79.10;;;;;;5050662;27;73748;-39
2023/10/22 00:17:53;;;;;;;;;;;19.00;79.00;;;;;;5052762;27;73494;-39
2023/10/22 00:20:19;;;;;;;;;;;19.10;79.00;;;;;;5055915;27;75412;-40
2023/10/22 00:22:45;;;;;;;;;;;19.10;79.00;;;;;;5050218;27;75140;-39
2023/10/22 00:25:10;;;;;;;;;;;19.00;79.00;;;;;;5047354;27;73971;-39
2023/10/22 00:27:36;;;;;;;;;;;19.00;79.10;;;;;;5053576;27;74824;-39
2023/10/22 00:30:02;;;;;;;;;;;19.00;79.10;;;;;;5035738;27;76648;-39
2023/10/22 00:32:28;;;;;;;;;;;19.00;79.20;;;;;;5059191;27;76319;-39
2023/10/22 00:34:54;;;;;;;;;;;19.00;79.10;;;;;;5055374;27;75720;-39
2023/10/22 00:37:19;;;;;;;;;;;19.00;79.20;;;;;;5050020;27;70187;-39
2023/10/22 00:39:45;;;;;;;;;;;19.00;79.20;;;;;;5053000;27;74180;-39
2023/10/22 00:42:10;;;;;;;;;;;19.00;79.10;;;;;;5049372;27;77338;-39
2023/10/22 00:44:36;;;;;;;;;;;19.00;79.00;;;;;;5053758;27;76287;-40
2023/10/22 00:47:05;;;;;;;;;;;19.00;79.10;;;;;;5048282;27;74845;-39
2023/10/22 00:49:34;;;;;;;;;;;19.00;79.10;;;;;;5049880;27;77527;-39
2023/10/22 00:52:00;;;;;;;;;;;19.00;79.00;;;;;;5055980;27;76170;-39
2023/10/22 00:54:26;;;;;;;;;;;19.00;79.00;;;;;;5057296;27;74225;-39
2023/10/22 00:56:53;;;;;;;;;;;19.00;78.90;;;;;;5051316;27;77159;-40
2023/10/22 00:59:18;;;;;;;;;;;19.00;78.90;;;;;;5050970;27;73333;-39
2023/10/22 01:01:44;;;;;;;;;;;19.00;78.90;;;;;;5052135;27;79592;-39
2023/10/22 01:04:10;;;;;;;;;;;19.00;79.10;;;;;;5053654;27;77815;-39
2023/10/22 01:06:36;;;;;;;;;;;19.00;78.90;;;;;;5050163;27;73768;-39
2023/10/22 01:09:01;;;;;;;;;;;18.90;78.90;;;;;;5051786;27;78442;-39
2023/10/22 01:11:27;;;;;;;;;;;18.90;78.90;;;;;;5049204;27;78699;-39
2023/10/22 01:13:54;;;;;;;;;;;18.90;78.90;;;;;;5054710;27;71736;-39
2023/10/22 01:16:19;;;;;;;;;;;19.00;78.90;;;;;;5049784;27;73924;-40
2023/10/22 01:18:45;;;;;;;;;;;18.90;78.80;;;;;;5056486;27;75820;-39
2023/10/22 01:21:11;;;;;;;;;;;18.90;78.80;;;;;;5050941;27;74735;-40
2023/10/22 01:23:36;;;;;;;;;;;18.90;78.80;;;;;;5061773;27;75492;-39
2023/10/22 01:26:04;;;;;;;;;;;18.90;78.80;;;;;;5055941;27;76328;-40
2023/10/22 01:28:30;;;;;;;;;;;18.90;78.80;;;;;;5053356;27;74244;-39
2023/10/22 01:30:56;;;;;;;;;;;18.90;78.80;;;;;;5054570;27;79349;-39
2023/10/22 01:33:22;;;;;;;;;;;18.90;78.80;;;;;;5054212;27;78440;-40
2023/10/22 01:35:47;;;;;;;;;;;18.90;78.70;;;;;;5054282;27;78335;-39
2023/10/22 01:38:13;;;;;;;;;;;18.90;78.70;;;;;;5052996;27;73927;-39
2023/10/22 01:40:38;;;;;;;;;;;18.90;78.70;;;;;;5056040;27;77514;-39
2023/10/22 01:43:04;;;;;;;;;;;18.90;78.70;;;;;;5051197;27;75349;-39
2023/10/22 01:45:29;;;;;;;;;;;18.90;78.70;;;;;;5057679;27;72266;-39
2023/10/22 01:47:56;;;;;;;;;;;18.90;78.70;;;;;;5053678;27;77558;-39
2023/10/22 01:50:21;;;;;;;;;;;18.90;78.70;;;;;;5053911;27;75962;-40
2023/10/22 01:52:47;;;;;;;;;;;18.90;78.80;;;;;;5057262;27;75191;-39
2023/10/22 01:55:12;;;;;;;;;;;18.90;78.70;;;;;;5054895;27;73842;-39
2023/10/22 01:57:38;;;;;;;;;;;18.90;78.80;;;;;;5053731;27;79785;-39
2023/10/22 02:00:04;;;;;;;;;;;18.80;78.70;;;;;;5052124;27;77086;-39
2023/10/22 02:02:29;;;;;;;;;;;18.90;78.70;;;;;;5057891;27;78080;-39
2023/10/22 02:04:55;;;;;;;;;;;18.90;78.70;;;;;;5052677;27;74224;-39
2023/10/22 02:07:20;;;;;;;;;;;18.90;78.70;;;;;;5057536;27;75192;-39
2023/10/22 02:09:45;;;;;;;;;;;18.90;78.70;;;;;;5040244;27;73634;-39
2023/10/22 02:12:11;;;;;;;;;;;18.90;78.80;;;;;;5056200;27;76210;-39
2023/10/22 02:14:36;;;;;;;;;;;18.90;78.80;;;;;;5054587;27;75098;-39
2023/10/22 02:17:03;;;;;;;;;;;18.90;78.70;;;;;;5048283;27;77114;-39
2023/10/22 02:19:28;;;;;;;;;;;18.90;78.80;;;;;;5055838;27;77255;-39
2023/10/22 02:21:54;;;;;;;;;;;18.90;78.70;;;;;;5048835;27;81466;-39
2023/10/22 02:24:20;;;;;;;;;;;18.90;78.60;;;;;;5058085;27;75678;-39
2023/10/22 02:26:46;;;;;;;;;;;18.90;78.60;;;;;;5057240;27;76788;-39
2023/10/22 02:29:14;;;;;;;;;;;18.90;78.70;;;;;;5052212;27;76599;-39
2023/10/22 02:31:42;;;;;;;;;;;18.80;78.60;;;;;;5048112;27;75214;-39
2023/10/22 02:34:08;;;;;;;;;;;18.90;78.60;;;;;;5053941;27;76878;-39
2023/10/22 02:36:34;;;;;;;;;;;18.80;78.60;;;;;;5055064;27;72429;-40
2023/10/22 02:39:00;;;;;;;;;;;18.80;78.70;;;;;;5052248;27;74438;-39
2023/10/22 02:41:25;;;;;;;;;;;18.80;78.70;;;;;;5056486;27;74197;-39
2023/10/22 02:43:51;;;;;;;;;;;18.80;78.60;;;;;;5049752;27;72914;-39
2023/10/22 02:46:16;;;;;;;;;;;18.80;78.60;;;;;;5054945;27;74643;-39
2023/10/22 02:48:42;;;;;;;;;;;18.80;78.60;;;;;;5052862;27;73795;-39
2023/10/22 02:51:07;;;;;;;;;;;18.80;78.70;;;;;;5048983;27;74372;-40
2023/10/22 02:53:33;;;;;;;;;;;18.80;78.60;;;;;;5053232;27;78384;-39
2023/10/22 02:56:00;;;;;;;;;;;18.80;78.60;;;;;;5058018;27;79189;-39
2023/10/22 02:58:26;;;;;;;;;;;18.80;78.70;;;;;;5050785;27;73083;-39
2023/10/22 03:00:51;;;;;;;;;;;18.80;78.80;;;;;;5052140;27;81400;-40
2023/10/22 03:03:18;;;;;;;;;;;18.80;78.60;;;;;;5054155;27;72939;-39
2023/10/22 03:05:43;;;;;;;;;;;18.80;78.60;;;;;;5051660;27;78670;-39
2023/10/22 03:08:08;;;;;;;;;;;18.80;78.60;;;;;;5054744;27;74645;-39
2023/10/22 03:10:37;;;;;;;;;;;18.80;78.60;;;;;;5053449;27;75685;-39
2023/10/22 03:13:03;;;;;;;;;;;18.80;78.60;;;;;;5051036;27;76913;-39
2023/10/22 03:15:28;;;;;;;;;;;18.80;78.60;;;;;;5053060;27;76637;-39
2023/10/22 03:17:54;;;;;;;;;;;18.80;78.60;;;;;;5051749;27;76938;-39
2023/10/22 03:20:19;;;;;;;;;;;18.70;78.50;;;;;;5049070;27;76413;-40
2023/10/22 03:22:45;;;;;;;;;;;18.80;78.50;;;;;;5049781;27;75836;-39
2023/10/22 03:25:12;;;;;;;;;;;18.80;78.50;;;;;;5061027;27;74833;-39
2023/10/22 03:27:38;;;;;;;;;;;18.80;78.60;;;;;;5053790;27;73935;-39
2023/10/22 03:30:04;;;;;;;;;;;18.80;78.50;;;;;;5057814;27;73758;-41
2023/10/22 03:32:30;;;;;;;;;;;18.70;78.50;;;;;;5052269;27;72480;-39
2023/10/22 03:34:55;;;;;;;;;;;18.70;78.40;;;;;;5050966;27;78910;-39
2023/10/22 03:37:21;;;;;;;;;;;18.70;78.40;;;;;;5052935;27;74912;-39
2023/10/22 03:39:46;;;;;;;;;;;18.80;78.40;;;;;;5053457;27;75600;-39
2023/10/22 03:42:12;;;;;;;;;;;18.80;78.50;;;;;;5051007;27;75790;-40
2023/10/22 03:44:37;;;;;;;;;;;18.70;78.40;;;;;;5051367;27;75609;-39
2023/10/22 03:47:03;;;;;;;;;;;18.70;78.40;;;;;;5051903;27;75225;-40
2023/10/22 03:49:28;;;;;;;;;;;18.70;78.50;;;;;;5049836;27;75838;-39
2023/10/22 03:51:54;;;;;;;;;;;18.70;78.50;;;;;;5056567;27;75392;-39
2023/10/22 03:54:19;;;;;;;;;;;18.70;78.40;;;;;;5054145;27;75245;-39
2023/10/22 03:56:45;;;;;;;;;;;18.70;78.40;;;;;;5058401;27;74679;-39
2023/10/22 03:59:10;;;;;;;;;;;18.70;78.40;;;;;;5054421;27;75981;-40
2023/10/22 04:01:36;;;;;;;;;;;18.70;78.30;;;;;;5048596;27;76695;-40
2023/10/22 04:04:01;;;;;;;;;;;18.70;78.40;;;;;;5052756;27;75167;-39
2023/10/22 04:06:27;;;;;;;;;;;18.70;78.30;;;;;;5056630;27;71960;-39
2023/10/22 04:08:52;;;;;;;;;;;18.70;78.30;;;;;;5042263;27;74824;-40
2023/10/22 04:11:18;;;;;;;;;;;18.70;78.30;;;;;;5054603;27;76299;-39
2023/10/22 04:13:44;;;;;;;;;;;18.70;78.40;;;;;;5054063;27;81315;-39
2023/10/22 04:16:13;;;;;;;;;;;18.70;78.40;;;;;;5052892;27;75079;-39
2023/10/22 04:18:39;;;;;;;;;;;18.70;78.50;;;;;;5051091;27;74832;-39
2023/10/22 04:21:11;;;;;;;;;;;18.70;79.30;;;;;;5050101;27;76629;-40
2023/10/22 04:23:36;;;;;;;;;;;18.70;78.50;;;;;;5053078;27;78005;-39
2023/10/22 04:26:02;;;;;;;;;;;18.70;78.40;;;;;;5052066;27;75015;-39
2023/10/22 04:28:28;;;;;;;;;;;18.70;78.40;;;;;;5050176;27;76709;-40
2023/10/22 04:30:54;;;;;;;;;;;18.70;78.40;;;;;;5053254;27;74945;-40
2023/10/22 04:33:19;;;;;;;;;;;18.70;78.40;;;;;;5045798;27;79317;-39
2023/10/22 04:35:45;;;;;;;;;;;18.70;78.40;;;;;;5053161;27;76729;-39
2023/10/22 04:38:13;;;;;;;;;;;18.60;78.40;;;;;;5052699;27;77453;-40
2023/10/22 04:40:39;;;;;;;;;;;18.60;78.40;;;;;;5055153;27;74046;-39
2023/10/22 04:43:04;;;;;;;;;;;18.70;78.40;;;;;;5052722;27;74360;-39
2023/10/22 04:45:30;;;;;;;;;;;18.60;78.40;;;;;;5047735;27;76176;-40
2023/10/22 04:47:56;;;;;;;;;;;18.60;78.30;;;;;;5054046;27;78465;-39
2023/10/22 04:50:21;;;;;;;;;;;18.60;78.30;;;;;;5050151;27;78345;-39
2023/10/22 04:52:47;;;;;;;;;;;18.60;78.40;;;;;;5049476;27;75835;-39
2023/10/22 04:55:15;;;;;;;;;;;18.60;78.50;;;;;;5057567;27;74826;-39
2023/10/22 04:57:58;;;;;;;;;;;18.60;78.40;;;;;;5058299;27;73985;-39
2023/10/22 05:00:23;;;;;;;;;;;18.60;78.50;;;;;;5061085;27;74834;-39
2023/10/22 05:02:50;;;;;;;;;;;18.60;78.40;;;;;;5056925;27;73932;-39
2023/10/22 05:05:15;;;;;;;;;;;18.60;78.40;;;;;;5053297;27;75283;-39
2023/10/22 05:07:41;;;;;;;;;;;18.60;78.40;;;;;;5055533;27;73792;-39
2023/10/22 05:10:06;;;;;;;;;;;18.60;78.40;;;;;;5054522;27;72413;-39
2023/10/22 05:12:32;;;;;;;;;;;18.70;78.40;;;;;;5054744;27;79131;-39
2023/10/22 05:14:57;;;;;;;;;;;18.60;78.30;;;;;;5059677;27;73851;-39
2023/10/22 05:17:26;;;;;;;;;;;18.60;78.30;;;;;;5052983;27;72981;-39
2023/10/22 05:19:51;;;;;;;;;;;18.60;78.30;;;;;;5049827;27;75575;-39
2023/10/22 05:22:17;;;;;;;;;;;18.60;79.20;;;;;;5054440;27;77419;-39
2023/10/22 05:24:48;;;;;;;;;;;18.60;78.40;;;;;;5051129;27;75580;-39
2023/10/22 05:27:15;;;;;;;;;;;18.60;78.40;;;;;;5052576;27;74942;-39
2023/10/22 05:29:41;;;;;;;;;;;18.60;78.40;;;;;;5051537;27;73626;-39
2023/10/22 05:32:08;;;;;;;;;;;18.60;78.40;;;;;;5058590;27;75831;-39
2023/10/22 05:34:33;;;;;;;;;;;18.60;78.30;;;;;;5053346;27;72307;-39
2023/10/22 05:36:59;;;;;;;;;;;18.60;78.40;;;;;;5054869;27;75126;-40
2023/10/22 05:39:25;;;;;;;;;;;18.60;78.30;;;;;;5053811;27;76142;-39
2023/10/22 05:41:51;;;;;;;;;;;18.60;78.30;;;;;;5047290;27;73178;-39
2023/10/22 05:44:16;;;;;;;;;;;18.60;78.40;;;;;;5053838;27;71508;-40
2023/10/22 05:46:42;;;;;;;;;;;18.60;78.40;;;;;;5054594;27;74263;-39
2023/10/22 05:49:10;;;;;;;;;;;18.60;78.40;;;;;;5055128;27;72099;-39
2023/10/22 05:51:35;;;;;;;;;;;18.60;78.30;;;;;;5050395;27;74011;-40
2023/10/22 05:54:01;;;;;;;;;;;18.60;78.40;;;;;;5040041;27;74253;-39
2023/10/22 05:56:28;;;;;;;;;;;18.60;78.40;;;;;;5059142;27;74863;-39
2023/10/22 05:58:53;;;;;;;;;;;18.60;78.40;;;;;;5056465;27;75649;-39
2023/10/22 06:01:19;;;;;;;;;;;18.60;78.40;;;;;;5055396;27;76228;-39
2023/10/22 06:03:44;;;;;;;;;;;18.60;78.30;;;;;;5051419;27;72883;-39
2023/10/22 06:06:10;;;;;;;;;;;18.60;78.30;;;;;;5056846;27;76209;-39
2023/10/22 06:08:36;;;;;;;;;;;18.60;78.30;;;;;;5056321;27;75377;-39
2023/10/22 06:11:02;;;;;;;;;;;18.60;78.30;;;;;;5055223;27;78511;-40
2023/10/22 06:13:28;;;;;;;;;;;18.50;78.30;;;;;;5054324;27;78072;-39
2023/10/22 06:15:55;;;;;;;;;;;18.50;78.40;;;;;;5060115;27;74223;-39
2023/10/22 06:18:21;;;;;;;;;;;18.50;78.40;;;;;;5054516;27;72477;-39
2023/10/22 06:20:46;;;;;;;;;;;18.50;78.40;;;;;;5059012;27;73415;-39
2023/10/22 06:23:11;;;;;;;;;;;18.50;78.40;;;;;;5052817;27;75245;-39
2023/10/22 06:25:37;;;;;;;;;;;18.50;78.40;;;;;;5038051;27;78204;-40
2023/10/22 06:28:03;;;;;;;;;;;18.50;78.40;;;;;;5060040;27;74314;-40
2023/10/22 06:30:28;;;;;;;;;;;18.50;78.40;;;;;;5036518;27;75183;-39
2023/10/22 06:32:55;;;;;;;;;;;18.50;78.40;;;;;;5058791;27;73332;-39
2023/10/22 06:35:21;;;;;;;;;;;18.50;78.40;;;;;;5041362;27;72778;-40
2023/10/22 06:37:47;;;;;;;;;;;18.50;78.40;;;;;;5050055;27;75310;-39
2023/10/22 06:40:13;;;;;;;;;;;18.50;78.40;;;;;;5056622;27;76832;-39
2023/10/22 06:42:40;;;;;;;;;;;18.50;78.40;;;;;;5052909;27;74982;-39
2023/10/22 06:45:07;;;;;;;;;;;18.50;78.40;;;;;;5051428;27;78987;-40
2023/10/22 06:47:36;;;;;;;;;;;18.50;78.40;;;;;;5056157;27;73519;-39
2023/10/22 06:50:05;;;;;;;;;;;18.50;78.40;;;;;;5031617;27;77827;-39
2023/10/22 06:52:31;;;;;;;;;;;18.50;78.30;;;;;;5051407;27;74575;-39
2023/10/22 06:54:56;;;;;;;;;;;18.50;78.20;;;;;;5055353;27;77924;-39
2023/10/22 06:57:22;;;;;;;;;;;18.50;78.30;;;;;;5049585;27;71246;-39
2023/10/22 06:59:48;;;;;;;;;;;18.50;78.30;;;;;;5053664;27;75054;-39
2023/10/22 07:02:15;;;;;;;;;;;18.50;78.40;;;;;;5046645;27;77977;-39
2023/10/22 07:04:41;;;;;;;;;;;18.50;78.40;;;;;;5052165;27;73463;-39
2023/10/22 07:07:06;;;;;;;;;;;18.50;78.40;;;;;;5051047;27;74470;-39
2023/10/22 07:09:32;;;;;;;;;;;18.50;78.40;;;;;;5049251;27;73946;-39
2023/10/22 07:11:57;;;;;;;;;;;18.50;78.40;;;;;;5042460;27;83493;-39
2023/10/22 07:14:23;;;;;;;;;;;18.50;78.30;;;;;;5051870;27;77695;-39
2023/10/22 07:16:48;;;;;;;;;;;18.50;78.30;;;;;;5043301;27;78470;-39
2023/10/22 07:19:14;;;;;;;;;;;18.50;78.40;;;;;;5047375;27;77231;-39
2023/10/22 07:21:39;;;;;;;;;;;18.50;78.30;;;;;;5049117;27;79150;-39
2023/10/22 07:24:05;;;;;;;;;;;18.50;78.30;;;;;;5030406;27;75718;-39
2023/10/22 07:26:31;;;;;;;;;;;18.50;78.30;;;;;;5052703;27;79081;-39
2023/10/22 07:28:58;;;;;;;;;;;18.50;78.40;;;;;;5055340;27;75933;-39
2023/10/22 07:31:23;;;;;;;;;;;18.50;78.30;;;;;;5054954;27;72536;-38
2023/10/22 07:33:49;;;;;;;;;;;18.50;78.40;;;;;;5052882;27;73217;-39
2023/10/22 07:36:15;;;;;;;;;;;18.50;78.50;;;;;;5056709;27;83314;-39
2023/10/22 07:38:41;;;;;;;;;;;18.50;78.40;;;;;;5054620;27;79098;-40
2023/10/22 07:41:12;;;;;;;;;;;18.50;78.40;;;;;;5046286;27;76139;-39
2023/10/22 07:43:38;;;;;;;;;;;18.50;78.30;;;;;;5064405;27;76412;-38
2023/10/22 07:46:04;;;;;;;;;;;18.50;78.40;;;;;;5051977;27;74802;-38
2023/10/22 07:48:30;;;;;;;;;;;18.50;78.30;;;;;;5050521;27;74136;-38
2023/10/22 07:51:06;;;;;;;;;;;18.50;78.40;;;;;;5053504;27;74071;-39
2023/10/22 07:53:32;;;;;;;;;;;18.50;78.30;;;;;;5054981;27;73468;-38
2023/10/22 07:55:57;;;;;;;;;;;18.50;78.30;;;;;;5052373;27;72981;-38
2023/10/22 07:58:23;;;;;;;;;;;18.40;78.30;;;;;;5062572;27;73038;-39
2023/10/22 08:00:49;;;;;;;;;;;18.50;78.40;;;;;;5031728;27;80738;-39
2023/10/22 08:03:14;;;;;;;;;;;18.50;78.30;;;;;;5032745;27;75009;-38
2023/10/22 08:05:40;;;;;;;;;;;18.50;78.20;;;;;;5062028;27;73421;-39
2023/10/22 08:08:05;;;;;;;;;;;18.50;78.30;;;;;;5054333;27;76275;-39
2023/10/22 08:10:31;;;;;;;;;;;18.50;78.40;;;;;;5060220;27;76084;-39
2023/10/22 08:12:56;;;;;;;;;;;18.50;78.30;;;;;;5050596;27;73682;-38
2023/10/22 08:15:22;;;;;;;;;;;18.50;78.30;;;;;;5057977;27;75259;-39
2023/10/22 08:17:47;;;;;;;;;;;18.50;78.30;;;;;;5050823;27;73105;-39
2023/10/22 08:20:13;;;;;;;;;;;18.50;78.30;;;;;;5062017;27;73935;-39
2023/10/22 08:22:38;;;;;;;;;;;18.50;77.60;;;;;;5059085;27;72744;-40
2023/10/22 08:25:04;;;;;;;;;;;18.50;78.40;;;;;;5034874;27;73846;-40
2023/10/22 08:27:30;;;;;;;;;;;18.50;78.40;;;;;;5045369;27;80002;-39
2023/10/22 08:29:55;;;;;;;;;;;18.50;78.50;;;;;;5047147;27;76113;-39
2023/10/22 08:32:21;;;;;;;;;;;18.50;78.40;;;;;;5051884;27;75786;-39
2023/10/22 08:34:46;;;;;;;;;;;18.50;78.30;;;;;;5054790;27;75071;-39
2023/10/22 08:37:12;;;;;;;;;;;18.50;78.40;;;;;;5062559;27;80557;-40
2023/10/22 08:39:37;;;;;;;;;;;18.50;78.40;;;;;;5060495;27;74966;-40
2023/10/22 08:42:09;;;;;;;;;;;18.50;78.40;;;;;;5048575;27;76545;-40
2023/10/22 08:44:39;;;;;;;;;;;18.50;78.40;;;;;;5058217;27;74376;-40
2023/10/22 08:47:07;;;;;;;;;;;18.50;78.40;;;;;;5047981;27;73003;-39
2023/10/22 08:49:34;;;;;;;;;;;18.50;78.40;;;;;;5033015;27;76691;-39
2023/10/22 08:51:59;;;;;;;;;;;18.50;78.30;;;;;;5050878;27;79196;-39
2023/10/22 08:54:26;;;;;;;;;;;18.50;78.30;;;;;;5052120;27;75135;-39
2023/10/22 08:56:52;;;;;;;;;;;18.50;78.20;;;;;;5050798;27;78783;-39
2023/10/22 08:59:18;;;;;;;;;;;18.50;78.40;;;;;;5052497;27;75142;-39
2023/10/22 09:01:43;;;;;;;;;;;18.50;78.40;;;;;;5060399;27;72747;-39
2023/10/22 09:04:09;;;;;;;;;;;18.50;78.40;;;;;;5056598;27;72776;-39
2023/10/22 09:06:34;;;;;;;;;;;18.50;78.30;;;;;;5051306;27;77644;-39
2023/10/22 09:09:00;;;;;;;;;;;18.50;78.40;;;;;;5052417;27;78778;-39
2023/10/22 09:11:26;;;;;;;;;;;18.50;78.30;;;;;;5054581;27;75378;-39
2023/10/22 09:13:51;;;;;;;;;;;18.50;78.30;;;;;;5055748;27;71609;-39
2023/10/22 09:16:27;;;;;;;;;;;18.50;78.30;;;;;;5053113;27;76261;-39
2023/10/22 09:18:52;;;;;;;;;;;18.60;78.30;;;;;;5043842;27;75657;-40
2023/10/22 09:21:18;;;;;;;;;;;18.60;78.40;;;;;;5058603;27;79197;-39
2023/10/22 09:23:43;;;;;;;;;;;18.60;78.40;;;;;;5048225;27;73979;-39
2023/10/22 09:26:10;;;;;;;;;;;18.50;78.40;;;;;;5031472;27;78136;-39
2023/10/22 09:28:36;;;;;;;;;;;18.50;78.20;;;;;;5052756;27;74735;-39
2023/10/22 09:31:04;;;;;;;;;;;18.50;78.40;;;;;;5043713;27;73590;-39
2023/10/22 09:33:30;;;;;;;;;;;18.60;78.30;;;;;;5053183;27;71979;-39
2023/10/22 09:36:00;;;;;;;;;;;18.60;78.30;;;;;;5057165;27;76445;-40
2023/10/22 09:38:46;;;;;;;;;;;18.60;78.30;;;;;;5055672;27;75465;-41
2023/10/22 09:41:13;;;;;;;;;;;18.60;78.30;;;;;;5048151;27;80146;-39
2023/10/22 09:43:39;;;;;;;;;;;18.60;78.20;;;;;;5048544;27;74083;-40
2023/10/22 09:46:08;;;;;;;;;;;18.60;78.30;;;;;;5049698;27;75871;-39
2023/10/22 09:48:34;;;;;;;;;;;18.60;78.20;;;;;;5057394;27;76202;-39
2023/10/22 09:51:02;;;;;;;;;;;18.60;78.30;;;;;;5043956;27;79553;-39
2023/10/22 09:53:30;;;;;;;;;;;18.60;78.30;;;;;;5047610;27;75909;-40
2023/10/22 09:55:56;;;;;;;;;;;18.60;78.30;;;;;;5050911;27;74866;-39
2023/10/22 09:58:26;;;;;;;;;;;18.60;78.20;;;;;;5054022;27;73667;-40
2023/10/22 10:00:51;;;;;;;;;;;18.60;78.30;;;;;;5044151;27;76425;-39
2023/10/22 10:03:19;;;;;;;;;;;18.60;78.20;;;;;;5055223;27;79589;-40
2023/10/22 10:05:44;;;;;;;;;;;18.60;78.20;;;;;;5048451;27;78730;-40
2023/10/22 10:08:10;;;;;;;;;;;18.70;79.60;;;;;;5046651;27;77488;-40
2023/10/22 10:10:36;;;;;;;;;;;18.70;80.20;;;;;;5051068;27;78404;-41
2023/10/22 10:13:02;;;;;;;;;;;18.80;80.40;;;;;;5051378;27;74660;-41
2023/10/22 10:15:33;;;;;;;;;;;18.90;80.70;;;;;;5051760;27;74939;-43
2023/10/22 10:18:00;;;;;;;;;;;18.90;80.90;;;;;;5031124;27;82962;-42
2023/10/22 10:20:31;;;;;;;;;;;18.90;80.90;;;;;;5048121;27;79034;-43
2023/10/22 10:23:03;;;;;;;;;;;19.00;80.70;;;;;;5051998;27;74616;-42
2023/10/22 10:25:29;;;;;;;;;;;19.00;80.50;;;;;;5057547;27;77275;-41
2023/10/22 10:27:54;;;;;;;;;;;19.00;80.20;;;;;;5044929;27;73557;-44
2023/10/22 10:30:20;;;;;;;;;;;19.00;80.10;;;;;;5044592;27;78982;-43
2023/10/22 10:32:48;;;;;;;;;;;19.10;79.90;;;;;;5057376;27;74928;-42
2023/10/22 10:35:14;;;;;;;;;;;19.10;79.80;;;;;;5047789;27;77282;-42
2023/10/22 10:37:39;;;;;;;;;;;19.20;79.70;;;;;;5052616;27;78054;-42
2023/10/22 10:40:06;;;;;;;;;;;19.20;79.70;;;;;;5051994;27;73748;-42
2023/10/22 10:42:32;;;;;;;;;;;19.20;79.60;;;;;;5044911;27;78437;-42
2023/10/22 10:44:58;;;;;;;;;;;19.20;80.10;;;;;;5045047;27;75558;-42
2023/10/22 10:47:31;;;;;;;;;;;19.20;80.40;;;;;;5045418;27;77882;-42
2023/10/22 10:49:59;;;;;;;;;;;19.30;80.70;;;;;;5048441;27;76610;-42
2023/10/22 10:52:25;;;;;;;;;;;19.30;80.60;;;;;;5046844;27;78135;-43
2023/10/22 10:54:57;;;;;;;;;;;19.30;80.80;;;;;;5060057;27;78074;-45
2023/10/22 10:57:53;;;;;;;;;;;19.40;81.00;;;;;;5052928;27;74595;-45
2023/10/22 11:00:24;;;;;;;;;;;19.40;81.00;;;;;;5037701;27;74720;-46
2023/10/22 11:02:50;;;;;;;;;;;19.40;81.10;;;;;;5049765;27;72909;-44
2023/10/22 11:05:18;;;;;;;;;;;19.30;80.90;;;;;;5051082;27;76924;-43
2023/10/22 11:07:44;;;;;;;;;;;19.40;81.00;;;;;;5048721;27;73491;-43
2023/10/22 11:10:10;;;;;;;;;;;19.40;80.80;;;;;;5054575;27;76588;-42
2023/10/22 11:12:37;;;;;;;;;;;19.40;80.90;;;;;;5049895;27;76166;-46
2023/10/22 11:15:04;;;;;;;;;;;19.40;80.90;;;;;;5048299;27;75262;-45
2023/10/22 11:17:29;;;;;;;;;;;19.50;80.80;;;;;;5053828;27;75013;-44
2023/10/22 11:19:55;;;;;;;;;;;19.50;80.70;;;;;;5052624;27;76511;-45
2023/10/22 11:22:21;;;;;;;;;;;19.50;80.80;;;;;;5050986;27;77030;-43
2023/10/22 11:24:47;;;;;;;;;;;19.50;80.70;;;;;;5044760;27;74990;-39
2023/10/22 11:27:14;;;;;;;;;;;19.50;80.60;;;;;;5047802;27;75119;-40
2023/10/22 11:29:40;;;;;;;;;;;19.50;80.60;;;;;;5046261;27;74398;-40
2023/10/22 11:32:10;;;;;;;;;;;19.40;79.90;;;;;;5046343;27;74778;-40
2023/10/22 11:34:35;;;;;;;;;;;19.50;80.30;;;;;;5052114;27;75755;-40
2023/10/22 11:37:01;;;;;;;;;;;19.50;80.30;;;;;;5028318;27;81947;-40
2023/10/22 11:39:34;;;;;;;;;;;19.50;80.30;;;;;;5042431;27;76639;-40
2023/10/22 11:41:59;;;;;;;;;;;19.50;80.00;;;;;;5048489;27;75054;-40
2023/10/22 11:44:30;;;;;;;;;;;19.50;80.10;;;;;;5048559;27;75580;-40
2023/10/22 11:46:57;;;;;;;;;;;19.60;80.10;;;;;;5051226;27;76392;-40
2023/10/22 11:49:24;;;;;;;;;;;19.60;80.00;;;;;;5060738;27;76584;-41
2023/10/22 11:51:49;;;;;;;;;;;19.60;80.00;;;;;;5058473;27;73292;-40
2023/10/22 11:54:15;;;;;;;;;;;19.60;79.90;;;;;;5053254;27;79065;-40
2023/10/22 11:56:40;;;;;;;;;;;19.60;79.70;;;;;;5052849;27;73143;-40
2023/10/22 11:59:07;;;;;;;;;;;19.60;79.60;;;;;;5062076;27;76459;-40
2023/10/22 12:01:32;;;;;;;;;;;19.70;79.60;;;;;;5056505;27;73248;-40
2023/10/22 12:03:58;;;;;;;;;;;19.70;79.50;;;;;;5057841;27;76276;-40
2023/10/22 12:06:24;;;;;;;;;;;19.70;79.40;;;;;;5041509;27;74259;-40
2023/10/22 12:08:49;;;;;;;;;;;19.70;79.40;;;;;;5060885;27;75866;-40
2023/10/22 12:11:15;;;;;;;;;;;19.70;79.30;;;;;;5055999;27;73935;-40
2023/10/22 12:13:40;;;;;;;;;;;19.70;79.20;;;;;;5047163;27;74816;-40
2023/10/22 12:16:06;;;;;;;;;;;19.80;79.30;;;;;;5057843;27;76917;-40
2023/10/22 12:18:32;;;;;;;;;;;19.80;79.30;;;;;;5056338;27;73377;-40
2023/10/22 12:20:57;;;;;;;;;;;19.70;79.30;;;;;;5062064;27;73134;-40
2023/10/22 12:23:24;;;;;;;;;;;19.80;79.30;;;;;;5054942;27;78380;-40
2023/10/22 12:25:50;;;;;;;;;;;19.80;79.30;;;;;;5053658;27;73896;-40
2023/10/22 12:28:15;;;;;;;;;;;19.80;79.40;;;;;;5055666;27;76765;-40
2023/10/22 12:30:41;;;;;;;;;;;19.80;79.30;;;;;;5061772;27;78597;-40
2023/10/22 12:33:08;;;;;;;;;;;19.90;79.40;;;;;;5042773;27;76840;-40
2023/10/22 12:35:37;;;;;;;;;;;19.90;79.40;;;;;;5050108;27;75029;-40
2023/10/22 12:38:03;;;;;;;;;;;19.90;79.30;;;;;;5062679;27;76846;-41
2023/10/22 12:40:29;;;;;;;;;;;19.90;79.10;;;;;;5050067;27;75303;-40
2023/10/22 12:42:55;;;;;;;;;;;19.90;79.00;;;;;;5044319;27;74668;-40
2023/10/22 12:45:20;;;;;;;;;;;19.90;79.00;;;;;;5031402;27;75677;-40
2023/10/22 12:47:46;;;;;;;;;;;19.90;78.80;;;;;;5048281;27;76390;-40
2023/10/22 12:50:11;;;;;;;;;;;19.90;78.70;;;;;;5055496;27;76015;-40
2023/10/22 12:52:37;;;;;;;;;;;20.00;78.70;;;;;;5054793;27;76421;-40
2023/10/22 12:55:03;;;;;;;;;;;20.00;78.60;;;;;;5058003;27;77075;-40
2023/10/22 12:57:29;;;;;;;;;;;20.00;78.60;;;;;;5056698;27;79317;-40
2023/10/22 12:59:54;;;;;;;;;;;20.00;78.60;;;;;;5057830;27;75369;-40
2023/10/22 13:02:20;;;;;;;;;;;20.00;78.50;;;;;;5054946;27;74144;-40
2023/10/22 13:04:46;;;;;;;;;;;20.00;78.30;;;;;;5056364;27;75582;-40
2023/10/22 13:07:12;;;;;;;;;;;20.00;78.20;;;;;;5054574;27;77721;-40
2023/10/22 13:09:37;;;;;;;;;;;20.00;78.10;;;;;;5046330;27;79597;-40
2023/10/22 13:12:03;;;;;;;;;;;20.10;78.30;;;;;;5046530;27;74772;-40
2023/10/22 13:14:28;;;;;;;;;;;20.10;78.80;;;;;;5054364;27;73655;-40
2023/10/22 13:16:54;;;;;;;;;;;20.10;78.10;;;;;;5050338;27;74063;-40
2023/10/22 13:19:19;;;;;;;;;;;20.10;78.10;;;;;;5052732;27;74690;-40
2023/10/22 13:21:47;;;;;;;;;;;20.10;78.00;;;;;;5056916;27;76938;-40
2023/10/22 13:24:12;;;;;;;;;;;20.10;78.00;;;;;;5057789;27;76055;-40
2023/10/22 13:26:38;;;;;;;;;;;20.10;77.80;;;;;;5058719;27;72016;-41
2023/10/22 13:29:06;;;;;;;;;;;20.10;78.60;;;;;;5054824;27;76954;-40
2023/10/22 13:31:32;;;;;;;;;;;20.20;77.80;;;;;;5043901;27;73360;-39
2023/10/22 13:33:58;;;;;;;;;;;20.20;78.00;;;;;;5052393;27;77961;-39
2023/10/22 13:36:23;;;;;;;;;;;20.20;78.10;;;;;;5057848;27;75677;-39
2023/10/22 13:38:48;;;;;;;;;;;20.20;78.20;;;;;;5053511;27;77853;-39
2023/10/22 13:41:14;;;;;;;;;;;20.20;78.40;;;;;;5049708;27;77302;-39
2023/10/22 13:43:40;;;;;;;;;;;20.20;78.40;;;;;;5047999;27;72010;-39
2023/10/22 13:46:05;;;;;;;;;;;20.20;78.30;;;;;;5053096;27;77100;-39
2023/10/22 13:48:31;;;;;;;;;;;20.20;78.30;;;;;;5053119;27;76990;-39
2023/10/22 13:50:58;;;;;;;;;;;20.20;78.40;;;;;;5060620;27;75154;-39
2023/10/22 13:53:24;;;;;;;;;;;20.20;78.10;;;;;;5061295;27;75393;-40
2023/10/22 13:55:56;;;;;;;;;;;20.20;78.20;;;;;;5061457;27;75251;-39
2023/10/22 13:58:21;;;;;;;;;;;20.20;78.00;;;;;;5052486;27;72243;-40
2023/10/22 14:00:47;;;;;;;;;;;20.20;77.90;;;;;;5050464;27;78566;-39
2023/10/22 14:03:12;;;;;;;;;;;20.30;77.90;;;;;;5060461;27;77012;-39
2023/10/22 14:05:38;;;;;;;;;;;20.30;78.40;;;;;;5060539;27;75271;-39
2023/10/22 14:08:04;;;;;;;;;;;20.30;77.70;;;;;;5057919;27;75541;-39
2023/10/22 14:10:31;;;;;;;;;;;20.30;77.50;;;;;;5047890;27;77002;-39